createdAt,value
2019-06-01T00:00:11.489Z,16.32
2019-06-01T00:01:04.002Z,16.29
2019-06-01T00:02:02.979Z,16.17
2019-06-01T00:03:02.983Z,16.35
2019-06-01T00:04:02.963Z,16.31
2019-06-01T00:05:02.977Z,16.26
2019-06-01T00:06:02.943Z,16.28
2019-06-01T00:07:02.921Z,16.31
2019-06-01T00:08:02.925Z,16.31
2019-06-01T00:09:02.899Z,16.33
2019-06-01T00:10:02.894Z,16.32
2019-06-01T00:11:02.883Z,16.28
2019-06-01T00:12:02.864Z,16.33
2019-06-01T00:13:02.887Z,16.26
2019-06-01T00:14:02.843Z,16.15
2019-06-01T00:15:02.839Z,16.17
2019-06-01T00:16:02.834Z,16.15
2019-06-01T00:17:02.822Z,16.12
2019-06-01T00:18:02.822Z,16.04
2019-06-01T00:19:02.789Z,16.10
2019-06-01T00:20:02.781Z,16.04
2019-06-01T00:21:02.772Z,15.98
2019-06-01T00:22:02.768Z,15.98
2019-06-01T00:23:02.741Z,15.95
2019-06-01T00:24:02.738Z,15.97
2019-06-01T00:25:02.769Z,15.98
2019-06-01T00:26:02.718Z,16.02
2019-06-01T00:27:02.701Z,16.00
2019-06-01T00:28:02.685Z,15.98
2019-06-01T00:29:02.676Z,15.94
2019-06-01T00:30:02.678Z,15.98
2019-06-01T00:31:02.682Z,15.92
2019-06-01T00:32:02.653Z,15.92
2019-06-01T00:33:02.653Z,15.90
2019-06-01T00:34:02.621Z,15.86
2019-06-01T00:35:02.626Z,15.94
2019-06-01T00:36:02.596Z,15.88
2019-06-01T00:37:02.599Z,15.88
2019-06-01T00:38:02.583Z,15.83
2019-06-01T00:39:02.572Z,15.88
2019-06-01T00:40:02.577Z,15.75
2019-06-01T00:41:02.545Z,15.80
2019-06-01T00:42:02.571Z,15.73
2019-06-01T00:43:02.525Z,15.72
2019-06-01T00:44:02.516Z,15.70
2019-06-01T00:45:02.502Z,15.67
2019-06-01T00:46:02.498Z,15.67
2019-06-01T00:47:02.481Z,15.67
2019-06-01T00:48:02.474Z,15.72
2019-06-01T00:49:02.459Z,15.70
2019-06-01T00:50:02.453Z,15.62
2019-06-01T00:51:02.436Z,15.54
2019-06-01T00:52:02.423Z,15.65
2019-06-01T00:53:02.435Z,15.54
2019-06-01T00:54:02.395Z,15.52
2019-06-01T00:55:02.386Z,15.47
2019-06-01T00:56:02.371Z,15.49
2019-06-01T00:57:02.361Z,15.46
2019-06-01T00:58:02.365Z,15.40
2019-06-01T00:59:02.345Z,15.35
2019-06-01T01:00:02.333Z,15.33
2019-06-01T01:01:02.316Z,15.28
2019-06-01T01:02:02.309Z,15.35
2019-06-01T01:03:02.309Z,15.28
2019-06-01T01:04:02.288Z,15.18
2019-06-01T01:05:02.273Z,15.24
2019-06-01T01:06:02.275Z,15.15
2019-06-01T01:07:02.251Z,15.15
2019-06-01T01:08:02.249Z,15.11
2019-06-01T01:09:02.235Z,15.10
2019-06-01T01:10:02.223Z,15.06
2019-06-01T01:11:02.214Z,15.09
2019-06-01T01:12:02.201Z,14.92
2019-06-01T01:13:02.228Z,14.99
2019-06-01T01:14:02.183Z,15.00
2019-06-01T01:15:02.387Z,14.89
2019-06-01T01:16:02.161Z,14.92
2019-06-01T01:17:02.163Z,14.97
2019-06-01T01:18:02.142Z,14.86
2019-06-01T01:19:02.134Z,14.97
2019-06-01T01:20:02.170Z,14.85
2019-06-01T01:21:02.155Z,14.92
2019-06-01T01:22:02.095Z,14.92
2019-06-01T01:23:02.086Z,14.94
2019-06-01T01:24:02.092Z,14.92
2019-06-01T01:25:02.067Z,14.94
2019-06-01T01:26:02.070Z,14.85
2019-06-01T01:27:02.043Z,14.82
2019-06-01T01:28:02.041Z,14.81
2019-06-01T01:29:02.040Z,14.84
2019-06-01T01:30:02.031Z,14.70
2019-06-01T01:31:12.831Z,14.77
2019-06-01T01:32:02.983Z,14.72
2019-06-01T01:33:01.974Z,14.72
2019-06-01T01:34:01.962Z,14.72
2019-06-01T01:35:02.159Z,14.81
2019-06-01T01:36:02.029Z,14.77
2019-06-01T01:37:01.935Z,14.79
2019-06-01T01:38:01.927Z,14.66
2019-06-01T01:39:01.913Z,14.69
2019-06-01T01:40:01.950Z,14.69
2019-06-01T01:41:01.894Z,14.63
2019-06-01T01:42:01.883Z,14.62
2019-06-01T01:43:01.881Z,14.58
2019-06-01T01:44:01.854Z,14.58
2019-06-01T01:45:01.860Z,14.60
2019-06-01T01:46:01.841Z,14.60
2019-06-01T01:47:01.830Z,14.60
2019-06-01T01:48:01.812Z,14.63
2019-06-01T01:49:02.590Z,14.60
2019-06-01T01:50:03.084Z,14.65
2019-06-01T01:51:02.717Z,14.66
2019-06-01T01:52:01.774Z,14.59
2019-06-01T01:53:03.191Z,14.70
2019-06-01T01:54:04.214Z,14.59
2019-06-01T01:55:03.268Z,14.62
2019-06-01T01:56:01.727Z,14.60
2019-06-01T01:57:02.506Z,14.53
2019-06-01T01:58:01.820Z,14.53
2019-06-01T01:59:04.135Z,14.50
2019-06-01T02:00:01.860Z,14.53
2019-06-01T02:01:16.943Z,14.44
2019-06-01T02:02:03.021Z,14.43
2019-06-01T02:03:02.335Z,14.44
2019-06-01T02:04:03.214Z,14.44
2019-06-01T02:05:02.195Z,14.37
2019-06-01T02:06:01.623Z,14.37
2019-06-01T02:07:02.391Z,14.35
2019-06-01T02:08:02.023Z,14.40
2019-06-01T02:09:01.930Z,14.36
2019-06-01T02:10:01.954Z,14.45
2019-06-01T02:11:01.851Z,14.37
2019-06-01T02:12:01.957Z,14.48
2019-06-01T02:13:02.223Z,14.36
2019-06-01T02:14:02.115Z,14.45
2019-06-01T02:15:02.104Z,14.43
2019-06-01T02:16:02.595Z,14.40
2019-06-01T02:17:02.499Z,14.37
2019-06-01T02:18:02.717Z,14.32
2019-06-01T02:19:02.419Z,14.30
2019-06-01T02:20:02.584Z,14.29
2019-06-01T02:21:02.692Z,14.28
2019-06-01T02:22:03.552Z,14.25
2019-06-01T02:23:01.444Z,14.18
2019-06-01T02:24:01.441Z,14.25
2019-06-01T02:25:02.138Z,14.20
2019-06-01T02:26:01.421Z,14.29
2019-06-01T02:27:01.466Z,14.26
2019-06-01T02:28:01.497Z,14.23
2019-06-01T02:29:02.495Z,14.20
2019-06-01T02:30:04.805Z,14.20
2019-06-01T02:31:02.095Z,14.18
2019-06-01T02:32:02.437Z,14.18
2019-06-01T02:33:02.433Z,14.18
2019-06-01T02:34:03.390Z,14.18
2019-06-01T02:35:02.637Z,14.11
2019-06-01T02:36:03.446Z,14.17
2019-06-01T02:37:02.409Z,14.15
2019-06-01T02:38:03.094Z,14.15
2019-06-01T02:39:03.074Z,14.20
2019-06-01T02:40:03.130Z,14.17
2019-06-01T02:41:03.083Z,14.18
2019-06-01T02:42:03.259Z,14.20
2019-06-01T02:43:02.103Z,14.17
2019-06-01T02:44:01.766Z,14.20
2019-06-01T02:45:01.743Z,14.20
2019-06-01T02:46:02.763Z,14.10
2019-06-01T02:47:01.627Z,14.15
2019-06-01T02:48:01.697Z,14.20
2019-06-01T02:49:02.072Z,14.18
2019-06-01T02:50:01.372Z,14.12
2019-06-01T02:51:01.844Z,14.17
2019-06-01T02:52:01.404Z,14.17
2019-06-01T02:53:01.518Z,14.14
2019-06-01T02:54:01.744Z,14.08
2019-06-01T02:55:02.264Z,14.12
2019-06-01T02:56:02.088Z,14.17
2019-06-01T02:57:02.130Z,14.10
2019-06-01T02:58:02.255Z,14.07
2019-06-01T02:59:02.276Z,14.00
2019-06-01T03:00:01.071Z,14.05
2019-06-01T03:01:01.032Z,14.07
2019-06-01T03:02:07.346Z,14.05
2019-06-01T03:03:02.857Z,13.96
2019-06-01T03:04:01.428Z,13.99
2019-06-01T03:05:01.246Z,13.87
2019-06-01T03:06:01.396Z,13.93
2019-06-01T03:07:03.788Z,13.89
2019-06-01T03:08:01.348Z,13.99
2019-06-01T03:09:01.849Z,13.99
2019-06-01T03:10:00.973Z,14.00
2019-06-01T03:11:01.790Z,14.03
2019-06-01T03:12:02.355Z,14.11
2019-06-01T03:13:02.029Z,14.08
2019-06-01T03:14:00.880Z,14.12
2019-06-01T03:15:00.885Z,14.14
2019-06-01T03:16:00.865Z,14.08
2019-06-01T03:17:01.882Z,14.11
2019-06-01T03:18:01.511Z,14.11
2019-06-01T03:19:01.914Z,14.14
2019-06-01T03:20:02.560Z,14.07
2019-06-01T03:21:01.651Z,14.14
2019-06-01T03:22:04.823Z,14.20
2019-06-01T03:23:01.756Z,14.11
2019-06-01T03:24:01.869Z,14.11
2019-06-01T03:25:02.078Z,14.14
2019-06-01T03:26:02.012Z,14.04
2019-06-01T03:27:02.879Z,14.18
2019-06-01T03:28:02.076Z,14.17
2019-06-01T03:29:00.726Z,14.08
2019-06-01T03:30:00.709Z,14.12
2019-06-01T03:31:01.270Z,14.11
2019-06-01T03:32:19.111Z,14.15
2019-06-01T03:33:03.336Z,14.11
2019-06-01T03:34:01.538Z,14.11
2019-06-01T03:35:00.653Z,14.05
2019-06-01T03:36:00.772Z,14.08
2019-06-01T03:37:00.988Z,14.18
2019-06-01T03:38:00.840Z,14.08
2019-06-01T03:39:02.021Z,14.07
2019-06-01T03:40:01.075Z,14.12
2019-06-01T03:41:00.596Z,14.12
2019-06-01T03:42:01.008Z,14.12
2019-06-01T03:43:00.567Z,14.20
2019-06-01T03:44:00.562Z,14.14
2019-06-01T03:45:01.372Z,14.17
2019-06-01T03:46:00.594Z,14.18
2019-06-01T03:47:01.513Z,14.28
2019-06-01T03:48:00.590Z,14.29
2019-06-01T03:49:01.437Z,14.25
2019-06-01T03:50:00.752Z,14.20
2019-06-01T03:51:01.574Z,14.28
2019-06-01T03:52:00.652Z,14.28
2019-06-01T03:53:01.648Z,14.41
2019-06-01T03:54:00.858Z,14.36
2019-06-01T03:55:01.736Z,14.36
2019-06-01T03:56:01.621Z,14.40
2019-06-01T03:57:00.884Z,14.40
2019-06-01T03:58:00.949Z,14.41
2019-06-01T03:59:00.976Z,14.50
2019-06-01T04:00:01.035Z,14.48
2019-06-01T04:01:00.908Z,14.50
2019-06-01T04:02:00.861Z,14.54
2019-06-01T04:03:00.835Z,14.54
2019-06-01T04:04:00.961Z,14.53
2019-06-01T04:05:01.180Z,14.62
2019-06-01T04:06:01.188Z,14.68
2019-06-01T04:07:01.273Z,14.68
2019-06-01T04:08:01.343Z,14.72
2019-06-01T04:09:01.587Z,14.69
2019-06-01T04:10:01.485Z,14.77
2019-06-01T04:11:01.317Z,14.82
2019-06-01T04:12:01.360Z,14.66
2019-06-01T04:13:01.355Z,14.77
2019-06-01T04:14:01.426Z,14.79
2019-06-01T04:15:00.240Z,14.82
2019-06-01T04:16:00.224Z,14.92
2019-06-01T04:17:00.210Z,14.91
2019-06-01T04:18:00.199Z,14.85
2019-06-01T04:19:00.192Z,14.85
2019-06-01T04:20:00.186Z,14.94
2019-06-01T04:21:00.163Z,14.94
2019-06-01T04:22:00.157Z,14.96
2019-06-01T04:23:00.146Z,14.99
2019-06-01T04:24:00.146Z,14.99
2019-06-01T04:25:00.126Z,14.89
2019-06-01T04:26:00.123Z,15.03
2019-06-01T04:27:00.100Z,15.00
2019-06-01T04:28:00.097Z,15.09
2019-06-01T04:29:00.118Z,15.14
2019-06-01T04:30:00.067Z,15.15
2019-06-01T04:31:00.075Z,15.18
2019-06-01T04:32:00.055Z,15.18
2019-06-01T04:33:00.046Z,15.15
2019-06-01T04:34:00.027Z,15.24
2019-06-01T04:35:00.018Z,15.28
2019-06-01T04:36:00.000Z,15.29
2019-06-01T04:36:59.993Z,15.27
2019-06-01T04:37:59.994Z,15.36
2019-06-01T04:38:59.963Z,15.40
2019-06-01T04:39:59.967Z,15.54
2019-06-01T04:40:59.945Z,15.54
2019-06-01T04:41:59.948Z,15.57
2019-06-01T04:42:59.924Z,15.70
2019-06-01T04:43:59.913Z,15.76
2019-06-01T04:44:59.938Z,15.83
2019-06-01T04:45:59.889Z,15.88
2019-06-01T04:46:59.875Z,15.86
2019-06-01T04:47:59.865Z,15.94
2019-06-01T04:48:59.863Z,15.95
2019-06-01T04:49:59.840Z,16.02
2019-06-01T04:50:59.842Z,15.98
2019-06-01T04:51:59.818Z,16.00
2019-06-01T04:52:59.806Z,16.02
2019-06-01T04:53:59.803Z,16.04
2019-06-01T04:54:59.790Z,16.10
2019-06-01T04:55:59.795Z,16.08
2019-06-01T04:56:59.771Z,16.21
2019-06-01T04:57:59.752Z,16.17
2019-06-01T04:58:59.742Z,16.20
2019-06-01T04:59:59.735Z,16.20
2019-06-01T05:00:59.728Z,16.12
2019-06-01T05:01:59.717Z,16.23
2019-06-01T05:03:05.422Z,16.17
2019-06-01T05:04:00.686Z,16.15
2019-06-01T05:04:59.681Z,16.15
2019-06-01T05:05:59.705Z,16.13
2019-06-01T05:06:59.657Z,16.21
2019-06-01T05:07:59.647Z,16.13
2019-06-01T05:08:59.632Z,16.10
2019-06-01T05:09:59.627Z,16.09
2019-06-01T05:10:59.618Z,16.20
2019-06-01T05:11:59.611Z,16.12
2019-06-01T05:12:59.587Z,16.16
2019-06-01T05:13:59.577Z,16.29
2019-06-01T05:14:59.579Z,16.39
2019-06-01T05:15:59.575Z,16.46
2019-06-01T05:16:59.565Z,16.65
2019-06-01T05:17:59.538Z,16.68
2019-06-01T05:18:59.522Z,16.75
2019-06-01T05:19:59.518Z,16.78
2019-06-01T05:20:59.500Z,16.78
2019-06-01T05:21:59.500Z,16.90
2019-06-01T05:22:59.508Z,16.89
2019-06-01T05:23:59.472Z,16.93
2019-06-01T05:24:59.465Z,16.90
2019-06-01T05:25:59.447Z,17.02
2019-06-01T05:26:59.435Z,17.11
2019-06-01T05:27:59.429Z,17.06
2019-06-01T05:28:59.434Z,17.20
2019-06-01T05:29:59.407Z,17.20
2019-06-01T05:30:59.394Z,17.19
2019-06-01T05:31:59.387Z,17.22
2019-06-01T05:32:59.374Z,17.22
2019-06-01T05:33:59.370Z,17.31
2019-06-01T05:34:59.346Z,17.27
2019-06-01T05:35:59.334Z,17.34
2019-06-01T05:36:59.324Z,17.30
2019-06-01T05:37:59.318Z,17.39
2019-06-01T05:38:59.333Z,17.36
2019-06-01T05:39:59.295Z,17.27
2019-06-01T05:40:59.289Z,17.38
2019-06-01T05:41:59.276Z,17.38
2019-06-01T05:42:59.259Z,17.31
2019-06-01T05:43:59.262Z,17.38
2019-06-01T05:44:59.267Z,17.36
2019-06-01T05:45:59.228Z,17.48
2019-06-01T05:46:59.223Z,17.56
2019-06-01T05:47:59.211Z,17.51
2019-06-01T05:48:59.200Z,17.51
2019-06-01T05:49:59.188Z,17.52
2019-06-01T05:50:59.175Z,17.48
2019-06-01T05:51:59.172Z,17.44
2019-06-01T05:52:59.152Z,17.56
2019-06-01T05:53:59.140Z,17.46
2019-06-01T05:54:59.128Z,17.56
2019-06-01T05:55:59.136Z,17.52
2019-06-01T05:56:59.113Z,17.54
2019-06-01T05:57:59.104Z,17.52
2019-06-01T05:58:59.092Z,17.64
2019-06-01T05:59:59.099Z,17.63
2019-06-01T06:00:59.196Z,17.54
2019-06-01T06:01:59.056Z,17.52
2019-06-01T06:02:59.049Z,17.70
2019-06-01T06:03:59.039Z,17.80
2019-06-01T06:04:59.027Z,17.74
2019-06-01T06:05:59.037Z,17.72
2019-06-01T06:06:59.007Z,17.76
2019-06-01T06:07:58.989Z,17.72
2019-06-01T06:08:58.984Z,17.79
2019-06-01T06:09:59.024Z,17.92
2019-06-01T06:10:58.955Z,17.90
2019-06-01T06:11:58.953Z,17.90
2019-06-01T06:12:58.940Z,17.94
2019-06-01T06:13:58.971Z,17.92
2019-06-01T06:14:58.939Z,18.00
2019-06-01T06:15:58.914Z,18.04
2019-06-01T06:16:58.939Z,18.03
2019-06-01T06:17:58.884Z,18.08
2019-06-01T06:18:58.918Z,18.08
2019-06-01T06:19:58.857Z,18.10
2019-06-01T06:20:58.851Z,18.15
2019-06-01T06:21:58.841Z,18.10
2019-06-01T06:22:58.845Z,18.20
2019-06-01T06:23:58.813Z,18.25
2019-06-01T06:24:58.818Z,18.20
2019-06-01T06:25:58.799Z,18.31
2019-06-01T06:26:58.787Z,18.33
2019-06-01T06:27:58.783Z,18.40
2019-06-01T06:28:58.764Z,18.40
2019-06-01T06:29:58.901Z,18.35
2019-06-01T06:30:58.749Z,18.40
2019-06-01T06:31:58.732Z,18.35
2019-06-01T06:32:58.756Z,18.47
2019-06-01T06:33:58.702Z,18.53
2019-06-01T06:34:58.697Z,18.44
2019-06-01T06:35:58.687Z,18.49
2019-06-01T06:36:58.669Z,18.37
2019-06-01T06:37:58.670Z,18.44
2019-06-01T06:38:58.657Z,18.40
2019-06-01T06:39:58.657Z,18.35
2019-06-01T06:40:58.656Z,18.40
2019-06-01T06:41:58.622Z,18.45
2019-06-01T06:42:58.604Z,18.43
2019-06-01T06:43:58.593Z,18.44
2019-06-01T06:44:58.705Z,18.49
2019-06-01T06:45:58.643Z,18.53
2019-06-01T06:46:58.556Z,18.45
2019-06-01T06:47:58.553Z,18.52
2019-06-01T06:48:58.575Z,18.62
2019-06-01T06:49:58.540Z,18.63
2019-06-01T06:50:58.522Z,18.73
2019-06-01T06:51:58.502Z,18.70
2019-06-01T06:52:58.496Z,18.78
2019-06-01T06:53:58.490Z,18.78
2019-06-01T06:54:58.483Z,18.77
2019-06-01T06:55:58.461Z,18.70
2019-06-01T06:56:58.454Z,18.88
2019-06-01T06:57:58.454Z,18.83
2019-06-01T06:58:58.431Z,18.83
2019-06-01T06:59:58.439Z,18.95
2019-06-01T07:00:58.408Z,18.99
2019-06-01T07:01:58.409Z,19.08
2019-06-01T07:02:58.388Z,19.00
2019-06-01T07:04:11.777Z,19.08
2019-06-01T07:04:59.376Z,19.14
2019-06-01T07:05:58.370Z,19.11
2019-06-01T07:06:58.345Z,18.98
2019-06-01T07:07:58.333Z,19.04
2019-06-01T07:08:58.322Z,19.11
2019-06-01T07:09:58.306Z,19.07
2019-06-01T07:10:58.298Z,19.26
2019-06-01T07:11:58.288Z,19.37
2019-06-01T07:12:58.280Z,19.52
2019-06-01T07:13:58.282Z,19.55
2019-06-01T07:14:58.265Z,19.69
2019-06-01T07:15:58.247Z,19.69
2019-06-01T07:16:58.250Z,19.89
2019-06-01T07:17:58.230Z,19.92
2019-06-01T07:18:58.208Z,20.09
2019-06-01T07:19:58.204Z,20.09
2019-06-01T07:20:58.185Z,20.07
2019-06-01T07:21:58.215Z,20.07
2019-06-01T07:22:58.179Z,20.13
2019-06-01T07:23:58.154Z,20.09
2019-06-01T07:24:58.148Z,20.13
2019-06-01T07:25:58.172Z,20.16
2019-06-01T07:26:58.330Z,20.10
2019-06-01T07:27:58.125Z,20.13
2019-06-01T07:28:58.122Z,20.16
2019-06-01T07:29:58.089Z,20.28
2019-06-01T07:30:58.080Z,20.41
2019-06-01T07:31:58.063Z,20.37
2019-06-01T07:32:58.064Z,20.37
2019-06-01T07:33:58.047Z,20.47
2019-06-01T07:35:00.930Z,20.56
2019-06-01T07:35:58.039Z,20.60
2019-06-01T07:36:58.075Z,20.59
2019-06-01T07:37:58.016Z,20.72
2019-06-01T07:38:57.994Z,20.82
2019-06-01T07:39:57.989Z,20.82
2019-06-01T07:40:57.970Z,20.81
2019-06-01T07:41:58.113Z,20.72
2019-06-01T07:42:57.954Z,20.81
2019-06-01T07:43:57.945Z,20.77
2019-06-01T07:44:57.921Z,20.80
2019-06-01T07:45:57.951Z,20.82
2019-06-01T07:46:57.904Z,20.85
2019-06-01T07:47:57.889Z,20.93
2019-06-01T07:48:57.891Z,20.85
2019-06-01T07:49:57.880Z,20.99
2019-06-01T07:50:57.859Z,21.15
2019-06-01T07:51:57.881Z,21.20
2019-06-01T07:52:57.846Z,21.21
2019-06-01T07:53:57.838Z,21.30
2019-06-01T07:54:57.822Z,21.20
2019-06-01T07:55:57.811Z,21.33
2019-06-01T07:56:57.797Z,21.35
2019-06-01T07:57:57.783Z,21.35
2019-06-01T07:58:57.803Z,21.37
2019-06-01T07:59:57.756Z,21.33
2019-06-01T08:00:57.747Z,21.50
2019-06-01T08:01:57.778Z,21.54
2019-06-01T08:02:57.725Z,21.60
2019-06-01T08:03:57.718Z,21.70
2019-06-01T08:04:57.714Z,21.79
2019-06-01T08:05:57.693Z,21.85
2019-06-01T08:06:57.853Z,21.93
2019-06-01T08:07:57.679Z,21.98
2019-06-01T08:08:57.677Z,22.10
2019-06-01T08:09:57.772Z,22.11
2019-06-01T08:10:57.642Z,21.96
2019-06-01T08:11:57.628Z,21.96
2019-06-01T08:12:57.623Z,21.98
2019-06-01T08:13:57.618Z,21.99
2019-06-01T08:14:57.597Z,21.98
2019-06-01T08:15:57.585Z,21.93
2019-06-01T08:16:57.575Z,21.95
2019-06-01T08:17:57.572Z,21.96
2019-06-01T08:18:57.564Z,21.99
2019-06-01T08:19:57.565Z,22.00
2019-06-01T08:20:57.535Z,21.96
2019-06-01T08:21:57.553Z,21.99
2019-06-01T08:22:57.509Z,22.13
2019-06-01T08:23:57.504Z,22.13
2019-06-01T08:24:57.509Z,22.30
2019-06-01T08:25:57.477Z,22.44
2019-06-01T08:26:57.470Z,22.53
2019-06-01T08:27:57.488Z,22.63
2019-06-01T08:28:57.455Z,22.70
2019-06-01T08:29:57.441Z,22.72
2019-06-01T08:30:57.437Z,22.85
2019-06-01T08:31:57.416Z,22.91
2019-06-01T08:32:57.403Z,22.93
2019-06-01T08:33:57.393Z,22.99
2019-06-01T08:35:07.941Z,23.05
2019-06-01T08:35:58.365Z,23.23
2019-06-01T08:36:57.379Z,23.17
2019-06-01T08:37:57.347Z,23.08
2019-06-01T08:38:57.330Z,23.10
2019-06-01T08:39:59.230Z,23.17
2019-06-01T08:40:57.323Z,23.13
2019-06-01T08:41:57.310Z,23.23
2019-06-01T08:42:57.293Z,23.23
2019-06-01T08:43:57.292Z,23.31
2019-06-01T08:44:57.301Z,23.43
2019-06-01T08:45:57.256Z,23.44
2019-06-01T08:46:57.249Z,23.59
2019-06-01T08:47:57.231Z,23.74
2019-06-01T08:48:57.226Z,23.80
2019-06-01T08:49:57.217Z,23.88
2019-06-01T08:50:57.213Z,24.01
2019-06-01T08:51:57.237Z,24.06
2019-06-01T08:52:57.196Z,23.91
2019-06-01T08:53:57.166Z,23.78
2019-06-01T08:54:57.160Z,23.80
2019-06-01T08:55:57.145Z,23.81
2019-06-01T08:56:57.143Z,23.92
2019-06-01T08:57:57.135Z,23.88
2019-06-01T08:58:57.112Z,23.98
2019-06-01T08:59:57.123Z,23.99
2019-06-01T09:00:57.091Z,23.92
2019-06-01T09:01:57.088Z,23.91
2019-06-01T09:02:57.079Z,23.84
2019-06-01T09:03:57.064Z,24.02
2019-06-01T09:04:57.053Z,24.03
2019-06-01T09:05:57.041Z,24.06
2019-06-01T09:06:57.035Z,24.17
2019-06-01T09:07:57.017Z,24.18
2019-06-01T09:08:57.012Z,24.16
2019-06-01T09:09:57.006Z,24.13
2019-06-01T09:10:57.002Z,24.21
2019-06-01T09:11:57.007Z,24.28
2019-06-01T09:12:56.963Z,24.36
2019-06-01T09:13:56.955Z,24.36
2019-06-01T09:14:56.964Z,24.39
2019-06-01T09:15:56.958Z,24.35
2019-06-01T09:16:56.924Z,24.39
2019-06-01T09:17:56.934Z,24.33
2019-06-01T09:18:56.898Z,24.40
2019-06-01T09:19:56.898Z,24.38
2019-06-01T09:20:56.900Z,24.40
2019-06-01T09:21:56.872Z,24.42
2019-06-01T09:22:56.871Z,24.35
2019-06-01T09:23:56.862Z,24.32
2019-06-01T09:24:57.055Z,24.26
2019-06-01T09:25:56.832Z,24.24
2019-06-01T09:26:56.818Z,24.36
2019-06-01T09:27:56.806Z,24.42
2019-06-01T09:28:56.814Z,24.29
2019-06-01T09:29:56.785Z,24.26
2019-06-01T09:30:56.772Z,24.32
2019-06-01T09:31:56.769Z,24.35
2019-06-01T09:32:56.753Z,24.29
2019-06-01T09:33:56.768Z,24.33
2019-06-01T09:34:56.746Z,24.35
2019-06-01T09:35:56.729Z,24.30
2019-06-01T09:36:56.708Z,24.30
2019-06-01T09:37:56.697Z,24.35
2019-06-01T09:38:56.717Z,24.48
2019-06-01T09:39:56.684Z,24.70
2019-06-01T09:40:56.683Z,24.69
2019-06-01T09:41:56.659Z,24.89
2019-06-01T09:42:56.648Z,24.98
2019-06-01T09:43:56.664Z,25.01
2019-06-01T09:44:56.639Z,25.17
2019-06-01T09:45:56.619Z,25.10
2019-06-01T09:46:56.604Z,25.21
2019-06-01T09:47:56.719Z,25.21
2019-06-01T09:48:56.591Z,25.32
2019-06-01T09:49:56.593Z,25.21
2019-06-01T09:50:56.563Z,25.26
2019-06-01T09:51:56.638Z,25.35
2019-06-01T09:52:56.549Z,25.38
2019-06-01T09:53:56.532Z,25.46
2019-06-01T09:54:56.526Z,25.54
2019-06-01T09:55:56.519Z,25.60
2019-06-01T09:56:56.534Z,25.59
2019-06-01T09:57:56.490Z,25.59
2019-06-01T09:58:56.478Z,25.63
2019-06-01T09:59:56.461Z,25.53
2019-06-01T10:00:56.474Z,25.29
2019-06-01T10:01:56.455Z,25.28
2019-06-01T10:02:56.429Z,25.22
2019-06-01T10:03:56.423Z,25.11
2019-06-01T10:04:56.415Z,25.03
2019-06-01T10:06:01.737Z,24.98
2019-06-01T10:06:57.383Z,25.04
2019-06-01T10:07:56.381Z,25.16
2019-06-01T10:08:56.380Z,25.04
2019-06-01T10:09:56.358Z,25.06
2019-06-01T10:10:56.348Z,25.08
2019-06-01T10:11:56.361Z,25.04
2019-06-01T10:12:56.328Z,25.16
2019-06-01T10:13:56.314Z,25.31
2019-06-01T10:14:56.300Z,25.46
2019-06-01T10:15:56.291Z,25.68
2019-06-01T10:16:56.290Z,25.75
2019-06-01T10:17:56.304Z,25.83
2019-06-01T10:18:56.262Z,25.93
2019-06-01T10:19:56.260Z,26.00
2019-06-01T10:20:56.245Z,26.00
2019-06-01T10:21:56.230Z,26.05
2019-06-01T10:22:56.221Z,26.07
2019-06-01T10:23:56.224Z,26.22
2019-06-01T10:24:56.199Z,26.25
2019-06-01T10:25:56.190Z,26.47
2019-06-01T10:26:56.176Z,26.51
2019-06-01T10:27:56.179Z,26.60
2019-06-01T10:28:56.163Z,26.84
2019-06-01T10:29:56.144Z,26.88
2019-06-01T10:30:56.136Z,26.78
2019-06-01T10:31:56.122Z,26.63
2019-06-01T10:32:56.127Z,26.66
2019-06-01T10:33:56.149Z,26.56
2019-06-01T10:34:56.097Z,26.59
2019-06-01T10:35:56.081Z,26.56
2019-06-01T10:36:56.074Z,26.55
2019-06-01T10:37:56.076Z,26.60
2019-06-01T10:38:56.056Z,26.81
2019-06-01T10:39:56.054Z,26.93
2019-06-01T10:40:56.047Z,27.15
2019-06-01T10:41:56.022Z,27.07
2019-06-01T10:42:56.042Z,27.00
2019-06-01T10:43:56.001Z,27.00
2019-06-01T10:44:56.034Z,27.17
2019-06-01T10:45:55.985Z,27.17
2019-06-01T10:46:55.976Z,27.26
2019-06-01T10:47:55.977Z,27.36
2019-06-01T10:48:55.956Z,27.42
2019-06-01T10:49:55.949Z,27.40
2019-06-01T10:50:55.964Z,27.32
2019-06-01T10:51:55.931Z,27.14
2019-06-01T10:52:55.916Z,26.88
2019-06-01T10:53:55.907Z,26.58
2019-06-01T10:54:55.894Z,26.71
2019-06-01T10:55:55.885Z,26.84
2019-06-01T10:56:55.883Z,26.99
2019-06-01T10:57:55.910Z,26.97
2019-06-01T10:59:00.370Z,26.95
2019-06-01T10:59:55.845Z,26.83
2019-06-01T11:00:55.842Z,26.97
2019-06-01T11:01:55.834Z,27.07
2019-06-01T11:02:55.814Z,27.32
2019-06-01T11:03:55.846Z,27.55
2019-06-01T11:04:55.811Z,27.77
2019-06-01T11:05:55.787Z,27.87
2019-06-01T11:06:55.793Z,28.08
2019-06-01T11:07:55.778Z,28.27
2019-06-01T11:08:55.760Z,28.33
2019-06-01T11:09:55.744Z,28.20
2019-06-01T11:10:55.746Z,28.20
2019-06-01T11:11:55.733Z,28.25
2019-06-01T11:12:55.724Z,28.05
2019-06-01T11:13:55.724Z,27.95
2019-06-01T11:14:55.696Z,28.10
2019-06-01T11:15:55.695Z,28.15
2019-06-01T11:16:56.705Z,28.29
2019-06-01T11:17:55.672Z,28.41
2019-06-01T11:18:55.726Z,28.39
2019-06-01T11:19:55.655Z,28.35
2019-06-01T11:20:55.642Z,28.44
2019-06-01T11:21:55.634Z,28.39
2019-06-01T11:22:55.635Z,28.60
2019-06-01T11:23:55.613Z,28.59
2019-06-01T11:24:55.600Z,28.63
2019-06-01T11:25:55.609Z,28.62
2019-06-01T11:26:55.589Z,28.63
2019-06-01T11:27:55.579Z,28.79
2019-06-01T11:28:55.564Z,28.98
2019-06-01T11:29:55.566Z,29.01
2019-06-01T11:30:55.565Z,29.17
2019-06-01T11:31:55.534Z,29.24
2019-06-01T11:32:55.529Z,29.26
2019-06-01T11:33:55.531Z,29.32
2019-06-01T11:34:55.508Z,29.60
2019-06-01T11:35:55.518Z,29.54
2019-06-01T11:37:05.096Z,29.42
2019-06-01T11:37:56.476Z,29.36
2019-06-01T11:38:55.492Z,29.50
2019-06-01T11:39:55.498Z,29.27
2019-06-01T11:40:55.450Z,29.29
2019-06-01T11:41:55.443Z,29.39
2019-06-01T11:42:55.432Z,29.54
2019-06-01T11:43:55.437Z,29.68
2019-06-01T11:44:55.430Z,29.76
2019-06-01T11:45:55.411Z,30.00
2019-06-01T11:46:55.393Z,29.91
2019-06-01T11:47:55.384Z,30.06
2019-06-01T11:48:55.380Z,30.06
2019-06-01T11:49:55.374Z,29.71
2019-06-01T11:50:55.376Z,29.41
2019-06-01T11:51:55.351Z,29.31
2019-06-01T11:52:55.336Z,29.39
2019-06-01T11:53:55.328Z,29.51
2019-06-01T11:54:55.324Z,29.57
2019-06-01T11:55:55.321Z,29.79
2019-06-01T11:56:55.310Z,30.06
2019-06-01T11:57:55.287Z,30.12
2019-06-01T11:58:55.277Z,30.43
2019-06-01T11:59:55.292Z,30.46
2019-06-01T12:01:47.796Z,30.78
2019-06-01T12:02:47.792Z,30.85
2019-06-01T12:03:47.783Z,30.31
2019-06-01T12:04:47.762Z,29.79
2019-06-01T12:05:47.769Z,29.84
2019-06-01T12:06:47.749Z,30.03
2019-06-01T12:07:47.747Z,30.28
2019-06-01T12:08:47.727Z,30.47
2019-06-01T12:09:47.713Z,30.77
2019-06-01T12:10:47.843Z,30.92
2019-06-01T12:11:47.694Z,30.96
2019-06-01T12:12:47.698Z,31.18
2019-06-01T12:13:47.693Z,31.18
2019-06-01T12:14:47.667Z,30.97
2019-06-01T12:15:47.656Z,30.73
2019-06-01T12:16:47.649Z,30.92
2019-06-01T12:17:47.659Z,30.96
2019-06-01T12:18:47.632Z,30.99
2019-06-01T12:19:47.620Z,31.14
2019-06-01T12:20:47.605Z,31.34
2019-06-01T12:21:47.610Z,31.44
2019-06-01T12:22:47.592Z,31.25
2019-06-01T12:23:47.694Z,31.36
2019-06-01T12:24:47.569Z,31.51
2019-06-01T12:25:48.450Z,31.33
2019-06-01T12:26:47.690Z,31.36
2019-06-01T12:27:48.343Z,31.28
2019-06-01T12:28:47.901Z,31.39
2019-06-01T12:29:48.277Z,31.56
2019-06-01T12:30:47.945Z,31.54
2019-06-01T12:31:48.152Z,31.44
2019-06-01T12:32:48.705Z,31.34
2019-06-01T12:33:48.692Z,31.18
2019-06-01T12:34:48.502Z,31.14
2019-06-01T12:35:48.206Z,31.36
2019-06-01T12:36:48.442Z,31.39
2019-06-01T12:38:04.418Z,31.28
2019-06-01T12:38:48.465Z,31.31
2019-06-01T12:39:52.224Z,31.31
2019-06-01T12:40:48.419Z,31.51
2019-06-01T12:41:47.842Z,31.58
2019-06-01T12:42:47.775Z,30.94
2019-06-01T12:43:47.762Z,30.34
2019-06-01T12:44:47.850Z,29.93
2019-06-01T12:45:47.876Z,29.71
2019-06-01T12:46:47.347Z,29.45
2019-06-01T12:47:52.379Z,29.59
2019-06-01T12:48:48.462Z,29.73
2019-06-01T12:49:48.258Z,30.00
2019-06-01T12:50:50.521Z,29.84
2019-06-01T12:51:48.775Z,29.86
2019-06-01T12:52:48.510Z,29.86